<?xml version="1.0" encoding="UTF-8" standalone="no" ?>
<gpx xmlns="http://www.topografix.com/GPX/1/1" xmlns:xsi="http://www.w3.org/2001/XMLSchema-instance" xsi:schemaLocation="http://www.topografix.com/GPX/1/1 http://www.topografix.com/GPX/1/1/gpx.xsd" version="1.1" creator="VisuGPX - https://www.visugpx.com">
  <metadata>
    <name>Mornant Circuit Bleu 157</name>
    <desc><![CDATA[

]]></desc>
  </metadata>
  <trk>
    <name><![CDATA[Mornant Circuit Bleu 157]]></name>
    <trkseg>
      <trkpt lat="45.6208" lon="4.67372">
        <ele>369.3828125</ele>
        <time>2018-04-04T13:03:40Z</time>
      </trkpt>
      <trkpt lat="45.62118" lon="4.67425">
        <ele>370</ele>
        <time>2018-04-04T13:03:42Z</time>
      </trkpt>
      <trkpt lat="45.62047" lon="4.67468">
        <ele>368.32421875</ele>
        <time>2018-04-04T13:04:23Z</time>
      </trkpt>
      <trkpt lat="45.62037" lon="4.67654">
        <ele>366.171875</ele>
        <time>2018-04-04T13:04:27Z</time>
      </trkpt>
      <trkpt lat="45.61926" lon="4.67647">
        <ele>364.15234375</ele>
        <time>2018-04-04T13:04:29Z</time>
      </trkpt>
      <trkpt lat="45.62011" lon="4.67683">
        <ele>365.25390625</ele>
        <time>2018-04-04T13:04:31Z</time>
      </trkpt>
      <trkpt lat="45.62007" lon="4.67741">
        <ele>363.546875</ele>
        <time>2018-04-04T13:04:32Z</time>
      </trkpt>
      <trkpt lat="45.62118" lon="4.67947">
        <ele>355.15234375</ele>
        <time>2018-04-04T13:04:34Z</time>
      </trkpt>
      <trkpt lat="45.62186" lon="4.68288">
        <ele>337.8515625</ele>
        <time>2018-04-04T13:04:40Z</time>
      </trkpt>
      <trkpt lat="45.62203" lon="4.6856">
        <ele>330.484375</ele>
        <time>2018-04-04T13:04:42Z</time>
      </trkpt>
      <trkpt lat="45.62232" lon="4.68987">
        <ele>323.1796875</ele>
        <time>2018-04-04T13:04:44Z</time>
      </trkpt>
      <trkpt lat="45.62198" lon="4.69068">
        <ele>320.29296875</ele>
        <time>2018-04-04T13:04:45Z</time>
      </trkpt>
      <trkpt lat="45.62282" lon="4.69233">
        <ele>318.0078125</ele>
        <time>2018-04-04T13:04:49Z</time>
      </trkpt>
      <trkpt lat="45.6259" lon="4.69387">
        <ele>339.55859375</ele>
        <time>2018-04-04T13:04:53Z</time>
      </trkpt>
      <trkpt lat="45.63037" lon="4.69157">
        <ele>347.68359375</ele>
        <time>2018-04-04T13:04:57Z</time>
      </trkpt>
      <trkpt lat="45.63075" lon="4.69234">
        <ele>347.78125</ele>
        <time>2018-04-04T13:04:59Z</time>
      </trkpt>
      <trkpt lat="45.63234" lon="4.69134">
        <ele>350.9375</ele>
        <time>2018-04-04T13:05:03Z</time>
      </trkpt>
      <trkpt lat="45.63399" lon="4.69083">
        <ele>356.87890625</ele>
        <time>2018-04-04T13:05:04Z</time>
      </trkpt>
      <trkpt lat="45.63424" lon="4.69606">
        <ele>346.62890625</ele>
        <time>2018-04-04T13:05:07Z</time>
      </trkpt>
      <trkpt lat="45.63471" lon="4.69973">
        <ele>341.32421875</ele>
        <time>2018-04-04T13:05:13Z</time>
      </trkpt>
      <trkpt lat="45.63562" lon="4.70444">
        <ele>334.87890625</ele>
        <time>2018-04-04T13:05:14Z</time>
      </trkpt>
      <trkpt lat="45.63645" lon="4.70722">
        <ele>334.09765625</ele>
        <time>2018-04-04T13:05:20Z</time>
      </trkpt>
      <trkpt lat="45.63694" lon="4.71041">
        <ele>337.45703125</ele>
        <time>2018-04-04T13:05:22Z</time>
      </trkpt>
      <trkpt lat="45.63637" lon="4.71346">
        <ele>339.41015625</ele>
        <time>2018-04-04T13:05:25Z</time>
      </trkpt>
      <trkpt lat="45.63635" lon="4.71451">
        <ele>341.13671875</ele>
        <time>2018-04-04T13:05:26Z</time>
      </trkpt>
      <trkpt lat="45.63649" lon="4.71612">
        <ele>342.48046875</ele>
        <time>2018-04-04T13:05:30Z</time>
      </trkpt>
      <trkpt lat="45.63655" lon="4.71811">
        <ele>343.9609375</ele>
        <time>2018-04-04T13:05:32Z</time>
      </trkpt>
      <trkpt lat="45.63681" lon="4.71914">
        <ele>346.37890625</ele>
        <time>2018-04-04T13:05:34Z</time>
      </trkpt>
      <trkpt lat="45.63697" lon="4.71992">
        <ele>348.44921875</ele>
        <time>2018-04-04T13:05:36Z</time>
      </trkpt>
      <trkpt lat="45.63662" lon="4.72207">
        <ele>352.1640625</ele>
        <time>2018-04-04T13:05:39Z</time>
      </trkpt>
      <trkpt lat="45.63645" lon="4.72445">
        <ele>343.27734375</ele>
        <time>2018-04-04T13:05:40Z</time>
      </trkpt>
      <trkpt lat="45.63348" lon="4.72531">
        <ele>324.5546875</ele>
        <time>2018-04-04T13:05:51Z</time>
      </trkpt>
      <trkpt lat="45.63254" lon="4.725">
        <ele>323.51171875</ele>
        <time>2018-04-04T13:05:54Z</time>
      </trkpt>
      <trkpt lat="45.62946" lon="4.72336">
        <ele>317.74609375</ele>
        <time>2018-04-04T13:05:55Z</time>
      </trkpt>
      <trkpt lat="45.62672" lon="4.72201">
        <ele>307.734375</ele>
        <time>2018-04-04T13:05:59Z</time>
      </trkpt>
      <trkpt lat="45.62547" lon="4.72203">
        <ele>304.953125</ele>
        <time>2018-04-04T13:06:02Z</time>
      </trkpt>
      <trkpt lat="45.62184" lon="4.72127">
        <ele>299.9232</ele>
        <time>2018-04-04T13:06:05Z</time>
      </trkpt>
      <trkpt lat="45.62058" lon="4.72217">
        <ele>299.9232</ele>
        <time>2018-04-04T13:06:24Z</time>
      </trkpt>
      <trkpt lat="45.619" lon="4.72275">
        <ele>299.9232</ele>
        <time>2018-04-04T13:06:27Z</time>
      </trkpt>
      <trkpt lat="45.61761" lon="4.72331">
        <ele>299.9232</ele>
        <time>2018-04-04T13:06:28Z</time>
      </trkpt>
      <trkpt lat="45.61673" lon="4.72287">
        <ele>294.94921875</ele>
        <time>2018-04-04T13:06:31Z</time>
      </trkpt>
      <trkpt lat="45.61529" lon="4.72244">
        <ele>297.48828125</ele>
        <time>2018-04-04T13:06:42Z</time>
      </trkpt>
      <trkpt lat="45.6155" lon="4.72144">
        <ele>298.390625</ele>
        <time>2018-04-04T13:06:45Z</time>
      </trkpt>
      <trkpt lat="45.61304" lon="4.72037">
        <ele>315.75390625</ele>
        <time>2018-04-04T13:06:46Z</time>
      </trkpt>
      <trkpt lat="45.61125" lon="4.72042">
        <ele>324.390625</ele>
        <time>2018-04-04T13:06:47Z</time>
      </trkpt>
      <trkpt lat="45.61077" lon="4.72234">
        <ele>330.91015625</ele>
        <time>2018-04-04T13:06:49Z</time>
      </trkpt>
      <trkpt lat="45.61194" lon="4.72646">
        <ele>316.28125</ele>
        <time>2018-04-04T13:06:51Z</time>
      </trkpt>
      <trkpt lat="45.61422" lon="4.73056">
        <ele>290.0546875</ele>
        <time>2018-04-04T13:06:53Z</time>
      </trkpt>
      <trkpt lat="45.61485" lon="4.73427">
        <ele>284.83203125</ele>
        <time>2018-04-04T13:06:55Z</time>
      </trkpt>
      <trkpt lat="45.61558" lon="4.73415">
        <ele>282.6484375</ele>
        <time>2018-04-04T13:06:57Z</time>
      </trkpt>
      <trkpt lat="45.6165" lon="4.73231">
        <ele>291.46875</ele>
        <time>2018-04-04T13:06:58Z</time>
      </trkpt>
      <trkpt lat="45.61944" lon="4.73092">
        <ele>290.828125</ele>
        <time>2018-04-04T13:06:59Z</time>
      </trkpt>
      <trkpt lat="45.61816" lon="4.73581">
        <ele>290.73828125</ele>
        <time>2018-04-04T13:07:01Z</time>
      </trkpt>
      <trkpt lat="45.61759" lon="4.73589">
        <ele>291.33203125</ele>
        <time>2018-04-04T13:07:06Z</time>
      </trkpt>
      <trkpt lat="45.61729" lon="4.73726">
        <ele>293.69921875</ele>
        <time>2018-04-04T13:07:08Z</time>
      </trkpt>
      <trkpt lat="45.61972" lon="4.7377">
        <ele>293.56640625</ele>
        <time>2018-04-04T13:07:14Z</time>
      </trkpt>
      <trkpt lat="45.62147" lon="4.73871">
        <ele>288.76953125</ele>
        <time>2018-04-04T13:07:16Z</time>
      </trkpt>
      <trkpt lat="45.62401" lon="4.73883">
        <ele>284.93359375</ele>
        <time>2018-04-04T13:07:18Z</time>
      </trkpt>
      <trkpt lat="45.62636" lon="4.7432">
        <ele>292.41796875</ele>
        <time>2018-04-04T13:07:22Z</time>
      </trkpt>
      <trkpt lat="45.62734" lon="4.74492">
        <ele>311.32421875</ele>
        <time>2018-04-04T13:07:55Z</time>
      </trkpt>
      <trkpt lat="45.6283" lon="4.74438">
        <ele>314.53125</ele>
        <time>2018-04-04T13:07:56Z</time>
      </trkpt>
      <trkpt lat="45.629" lon="4.74546">
        <ele>324.15234375</ele>
        <time>2018-04-04T13:08:08Z</time>
      </trkpt>
      <trkpt lat="45.63059" lon="4.74327">
        <ele>291.6953125</ele>
        <time>2018-04-04T13:08:09Z</time>
      </trkpt>
      <trkpt lat="45.63142" lon="4.74488">
        <ele>292.73046875</ele>
        <time>2018-04-04T13:08:11Z</time>
      </trkpt>
      <trkpt lat="45.63316" lon="4.74453">
        <ele>269.86328125</ele>
        <time>2018-04-04T13:08:12Z</time>
      </trkpt>
      <trkpt lat="45.63594" lon="4.74908">
        <ele>212.6640625</ele>
        <time>2018-04-04T13:08:15Z</time>
      </trkpt>
      <trkpt lat="45.63668" lon="4.75027">
        <ele>207.6640625</ele>
        <time>2018-04-04T13:08:23Z</time>
      </trkpt>
      <trkpt lat="45.63947" lon="4.75019">
        <ele>210.99609375</ele>
        <time>2018-04-04T13:08:26Z</time>
      </trkpt>
      <trkpt lat="45.64075" lon="4.75463">
        <ele>187.1796875</ele>
        <time>2018-04-04T13:08:30Z</time>
      </trkpt>
      <trkpt lat="45.64106" lon="4.75579">
        <ele>187</ele>
        <time>2018-04-04T13:08:42Z</time>
      </trkpt>
      <trkpt lat="45.64656" lon="4.75689">
        <ele>202.18359375</ele>
        <time>2018-04-04T13:08:45Z</time>
      </trkpt>
      <trkpt lat="45.65192" lon="4.75625">
        <ele>202.0078125</ele>
        <time>2018-04-04T13:08:53Z</time>
      </trkpt>
      <trkpt lat="45.65279" lon="4.75104">
        <ele>205.07421875</ele>
        <time>2018-04-04T13:09:08Z</time>
      </trkpt>
      <trkpt lat="45.65324" lon="4.74914">
        <ele>206.89453125</ele>
        <time>2018-04-04T13:09:11Z</time>
      </trkpt>
      <trkpt lat="45.65369" lon="4.74524">
        <ele>210.0078125</ele>
        <time>2018-04-04T13:09:14Z</time>
      </trkpt>
      <trkpt lat="45.65347" lon="4.74364">
        <ele>209.39453125</ele>
        <time>2018-04-04T13:09:20Z</time>
      </trkpt>
      <trkpt lat="45.6529" lon="4.74006">
        <ele>216.89453125</ele>
        <time>2018-04-04T13:09:21Z</time>
      </trkpt>
      <trkpt lat="45.65157" lon="4.73719">
        <ele>221.65625</ele>
        <time>2018-04-04T13:09:22Z</time>
      </trkpt>
      <trkpt lat="45.65145" lon="4.73318">
        <ele>230.29296875</ele>
        <time>2018-04-04T13:09:24Z</time>
      </trkpt>
      <trkpt lat="45.65247" lon="4.73163">
        <ele>243.625</ele>
        <time>2018-04-04T13:09:26Z</time>
      </trkpt>
      <trkpt lat="45.65297" lon="4.72886">
        <ele>257.53515625</ele>
        <time>2018-04-04T13:09:30Z</time>
      </trkpt>
      <trkpt lat="45.65161" lon="4.7281">
        <ele>239.16015625</ele>
        <time>2018-04-04T13:09:32Z</time>
      </trkpt>
      <trkpt lat="45.65023" lon="4.72701">
        <ele>255.29296875</ele>
        <time>2018-04-04T13:09:34Z</time>
      </trkpt>
      <trkpt lat="45.64976" lon="4.72455">
        <ele>283.34765625</ele>
        <time>2018-04-04T13:09:42Z</time>
      </trkpt>
      <trkpt lat="45.64853" lon="4.72318">
        <ele>286.8203125</ele>
        <time>2018-04-04T13:09:44Z</time>
      </trkpt>
      <trkpt lat="45.64793" lon="4.71972">
        <ele>287.9140625</ele>
        <time>2018-04-04T13:09:46Z</time>
      </trkpt>
      <trkpt lat="45.6481" lon="4.71886">
        <ele>283.79296875</ele>
        <time>2018-04-04T13:09:48Z</time>
      </trkpt>
      <trkpt lat="45.64937" lon="4.71945">
        <ele>277.2578125</ele>
        <time>2018-04-04T13:09:50Z</time>
      </trkpt>
      <trkpt lat="45.65093" lon="4.71646">
        <ele>287.19921875</ele>
        <time>2018-04-04T13:09:53Z</time>
      </trkpt>
      <trkpt lat="45.64888" lon="4.71769">
        <ele>280.9140625</ele>
        <time>2018-04-04T13:09:55Z</time>
      </trkpt>
      <trkpt lat="45.6463" lon="4.71684">
        <ele>291.1015625</ele>
        <time>2018-04-04T13:09:58Z</time>
      </trkpt>
      <trkpt lat="45.64522" lon="4.71439">
        <ele>306.81640625</ele>
        <time>2018-04-04T13:10:00Z</time>
      </trkpt>
      <trkpt lat="45.6524" lon="4.71285">
        <ele>297.6640625</ele>
        <time>2018-04-04T13:10:09Z</time>
      </trkpt>
      <trkpt lat="45.64705" lon="4.70749">
        <ele>334.05859375</ele>
        <time>2018-04-04T13:10:11Z</time>
      </trkpt>
      <trkpt lat="45.64244" lon="4.70126">
        <ele>373.79296875</ele>
        <time>2018-04-04T13:10:19Z</time>
      </trkpt>
      <trkpt lat="45.6378" lon="4.69357">
        <ele>375.578125</ele>
        <time>2018-04-04T13:10:21Z</time>
      </trkpt>
      <trkpt lat="45.63755" lon="4.69159">
        <ele>375.21875</ele>
        <time>2018-04-04T13:10:26Z</time>
      </trkpt>
      <trkpt lat="45.63831" lon="4.68933">
        <ele>374.8984375</ele>
        <time>2018-04-04T13:10:28Z</time>
      </trkpt>
      <trkpt lat="45.63817" lon="4.68555">
        <ele>380.3125</ele>
        <time>2018-04-04T13:10:30Z</time>
      </trkpt>
      <trkpt lat="45.63268" lon="4.68594">
        <ele>354.9140625</ele>
        <time>2018-04-04T13:10:31Z</time>
      </trkpt>
      <trkpt lat="45.63285" lon="4.68213">
        <ele>365.4296875</ele>
        <time>2018-04-04T13:10:33Z</time>
      </trkpt>
      <trkpt lat="45.63171" lon="4.67757">
        <ele>369.65234375</ele>
        <time>2018-04-04T13:10:37Z</time>
      </trkpt>
      <trkpt lat="45.62985" lon="4.67756">
        <ele>355.671875</ele>
        <time>2018-04-04T13:10:39Z</time>
      </trkpt>
      <trkpt lat="45.62861" lon="4.67452">
        <ele>352.01953125</ele>
        <time>2018-04-04T13:10:51Z</time>
      </trkpt>
      <trkpt lat="45.62677" lon="4.67364">
        <ele>354.16796875</ele>
        <time>2018-04-04T13:11:06Z</time>
      </trkpt>
      <trkpt lat="45.62392" lon="4.67362">
        <ele>362.51171875</ele>
        <time>2018-04-04T13:11:07Z</time>
      </trkpt>
      <trkpt lat="45.62213" lon="4.67175">
        <ele>372.34765625</ele>
        <time>2018-04-04T13:11:09Z</time>
      </trkpt>
      <trkpt lat="45.62079" lon="4.67394">
        <ele>369.453125</ele>
        <time>2018-04-04T13:11:23Z</time>
      </trkpt>
    </trkseg>
  </trk>
</gpx>